Motte Rimrock Reserve, California Weather observations

Data are for 10 minute period ending at time listed.
 Day   Time   Solar   Ave.   Ave.  Ave.  Vector  Max.   Baro.   Total    
  of    of     Rad.   Air    Rel.  Wind   Wind   Wind  Press.  Precip.   
Year   Day            Temp.  Hum.  Speed  Dir.   Gust                    
2017   (PST)  Kw/m2    F      %     mph   deg.    mph    mb.     in.     
-------------------------------------------------------------------------
  16    6:40   0.00   47.8    90    3.0   301     4.8   948.6    0.00 
  16    6:50   0.00   47.8    89    3.8   301     6.2   948.7    0.00 
  16    7:00   0.00   48.0    89    1.6   328     3.1   948.7    0.00 
  16    7:10   0.00   47.9    90    1.7   323     2.7   948.8    0.00 
  16    7:20   0.02   47.8    90    2.0   346     2.7   948.9    0.00 
  16    7:30   0.05   47.8    90    2.2   350     2.8   949.0    0.00 
  16    7:40   0.08   48.2    90    2.3   345     3.9   949.1    0.00 
  16    7:50   0.08   48.4    90    2.9   310     4.1   949.1    0.00 
  16    8:00   0.13   48.9    88    1.8   308     2.9   949.2    0.00 
  16    8:10   0.23   50.2    85    1.7   306     2.4   949.4    0.00 
  16    8:20   0.27   51.1    83    2.3   318     4.6   949.5    0.00 
  16    8:30   0.22   50.7    83    2.3   342     5.8   949.7    0.00 
  16    8:40   0.32   51.0    82    3.1   299     5.6   949.8    0.00 
  16    8:50   0.21   50.4    82    4.4   295     5.7   949.9    0.00 
  16    9:00   0.16   49.7    83    3.9   295     5.1   949.9    0.00 
  16    9:10   0.16   50.0    83    3.5   288     4.4   950.0    0.00 
  16    9:20   0.31   51.3    80    2.7   305     5.6   950.1    0.00 
  16    9:30   0.39   51.9    79    3.6   316     5.5   950.2    0.00 
  16    9:40   0.42   51.9    80    4.1   322     6.2   950.2    0.00 
  16    9:50   0.43   51.9    79    5.1   342     8.6   950.3    0.00 
  16   10:00   0.45   52.2    77    5.2   348     7.7   950.4    0.00 
  16   10:10   0.47   52.4    78    5.7   329     8.6   950.5    0.00 
  16   10:20   0.48   52.6    78    6.9   335    10.4   950.6    0.00 
  16   10:30   0.49   53.3    75    6.2   325     9.7   950.6    0.00 
  16   10:40   0.52   53.9    72    6.3   339    11.6   950.6    0.00 
  16   10:50   0.54   55.0    66    5.2   342     8.5   950.5    0.00 
  16   11:00   0.55   55.7    66    5.9   352    11.1   950.4    0.00 
  16   11:10   0.57   56.6    57    5.0    10    10.7   950.4    0.00 
  16   11:20   0.57   56.8    56    7.9   352    12.3   950.2    0.00 
  16   11:30   0.58   56.8    55    6.3    13    10.9   950.0    0.00 
  16   11:40   0.59   57.1    54    6.4    56    10.8   949.9    0.00 
  16   11:50   0.59   58.1    51    3.7    25     9.2   949.7    0.00 
  16   12:00   0.59   58.7    49    3.9   360     7.7   949.6    0.00 
  16   12:10   0.59   58.4    50    4.6   352    10.2   949.4    0.00 
  16   12:20   0.59   58.5    46    5.4   355    10.7   949.2    0.00 
  16   12:30   0.59   58.7    43    6.3   349    14.4   949.0    0.00 
  16   12:40   0.59   58.7    42    5.8   328     9.6   948.8    0.00 
  16   12:50   0.58   59.3    40    6.3   340     9.9   948.6    0.00 
  16   13:00   0.57   59.7    38    5.9   354     9.4   948.5    0.00 
  16   13:10   0.56   60.1    34    7.2   316    11.4   948.4    0.00 
  16   13:20   0.55   60.4    34    8.3   343    12.7   948.3    0.00 
  16   13:30   0.54   60.3    34    8.4   330    13.9   948.2    0.00 
  16   13:40   0.52   60.7    32    6.8   327    11.6   948.1    0.00 
  16   13:50   0.51   60.3    32    8.0   337    14.2   948.1    0.00 
  16   14:00   0.49   60.5    32    6.6   322    12.4   948.0    0.00 
  16   14:10   0.47   60.8    32    7.5   340    12.8   948.0    0.00 
  16   14:20   0.45   60.6    30    7.4   327    11.3   947.9    0.00 
  16   14:30   0.41   60.6    30   10.7   326    15.5   947.8    0.00 
  16   14:40   0.40   60.8    32   11.2   333    15.6   947.8    0.00 
  16   14:50   0.38   60.7    30    9.2   335    12.2   947.9    0.00 
  16   15:00   0.35   61.3    30    7.6   342     9.8   947.9    0.00 
  16   15:10   0.32   61.3    32    7.8   351    12.5   947.9    0.00 
  16   15:20   0.29   61.0    32   12.0   346    16.3   947.9    0.00 
  16   15:30   0.26   60.5    27   14.2   336    20.1   947.9    0.00 
  16   15:40   0.24   60.2    26   13.2   337    19.4   947.9    0.00 
  16   15:50   0.21   59.9    26   12.7   335    18.0   947.9    0.00 
  16   16:00   0.18   59.5    26   14.5   330    19.5   947.9    0.00 
  16   16:10   0.15   59.2    25   13.3   332    19.1   947.9    0.00 
  16   16:20   0.12   58.7    24   13.7   334    18.7   947.9    0.00 
  16   16:30   0.08   58.2    25   13.8   331    18.1   947.9    0.00 
  16   16:40   0.06   57.7    24   16.5   326    22.1   947.9    0.00 
  16   16:50   0.03   56.8    25   16.7   325    22.0   948.0    0.00 
  16   17:00   0.01   56.3    25   13.3   332    19.6   948.1    0.00 
  16   17:10   0.00   55.3    27   12.8   324    17.8   948.0    0.00 
  16   17:20   0.00   54.6    28   12.5   318    16.2   948.0    0.00 
  16   17:30   0.00   54.2    28   11.4   316    14.5   948.0    0.00 
  16   17:40   0.00   53.9    27   11.8   313    14.6   948.0    0.00 
  16   17:50   0.00   53.8    27   12.6   313    16.4   947.9    0.00 
  16   18:00   0.00   53.7    27   12.5   313    16.1   948.0    0.00 
  16   18:10   0.00   53.4    27   11.1   307    13.8   948.1    0.00 
  16   18:20   0.00   52.9    27   11.3   309    14.0   948.2    0.00 
  16   18:30   0.00   53.1    26   12.6   306    16.7   948.2    0.00 
  16   18:40   0.00   52.3    28   11.2   312    15.6   948.3    0.00 
  16   18:50   0.00   51.7    29   10.4   313    12.9   948.3    0.00 
  16   19:00   0.00   52.0    28   11.0   312    13.9   948.3    0.00 
  16   19:10   0.00   52.0    29   10.1   309    12.7   948.2    0.00 
  16   19:20   0.00   51.9    31    9.8   306    12.5   948.3    0.00 
  16   19:30   0.00   51.1    32    9.8   307    12.6   948.3    0.00 
  16   19:40   0.00   51.1    32    9.7   307    12.7   948.3    0.00 
  16   19:50   0.00   50.7    32   10.3   313    12.6   948.4    0.00 
  16   20:00   0.00   49.5    35   10.2   319    12.8   948.4    0.00 
  16   20:10   0.00   50.0    32    9.5   330    11.4   948.6    0.00 
  16   20:20   0.00   50.6    32    9.3   350    12.9   948.7    0.00 
  16   20:30   0.00   50.8    35    7.6   358     9.8   948.7    0.00 
  16   20:40   0.00   50.5    39    7.7   360     9.5   948.8    0.00 
  16   20:50   0.00   50.6    39    7.9     0     9.3   948.9    0.00 
  16   21:00   0.00   50.3    40    6.7   356     8.8   949.0    0.00 
  16   21:10   0.00   50.0    38    5.4   352     7.7   949.1    0.00 
  16   21:20   0.00   50.2    35    6.3   358     8.0   949.2    0.00 
  16   21:30   0.00   49.9    38    6.5     2     7.9   949.3    0.00 
  16   21:40   0.00   50.1    38    6.4     4     7.5   949.3    0.00 
  16   21:50   0.00   50.2    38    7.0     9     8.6   949.3    0.00 
  16   22:00   0.00   50.8    36    6.9    21     8.9   949.3    0.00 
  16   22:10   0.00   51.0    35    7.0    23     8.6   949.3    0.00 
  16   22:20   0.00   50.8    36    6.7    22     8.0   949.2    0.00 
  16   22:30   0.00   50.6    36    7.2    27     8.6   949.2    0.00 
  16   22:40   0.00   50.2    37    7.0    32     8.5   949.2    0.00 
  16   22:50   0.00   50.0    38    6.5    34     8.2   949.2    0.00 
  16   23:00   0.00   49.8    38    6.6    32     8.2   949.2    0.00 
  16   23:10   0.00   49.5    39    6.1    34     8.2   949.2    0.00 
  16   23:20   0.00   49.3    39    5.5    40     6.5   949.3    0.00 
  16   23:30   0.00   49.2    40    3.8    35     5.5   949.4    0.00 
  16   23:40   0.00   49.1    40    4.8    44     6.9   949.4    0.00 
  16   23:50   0.00   48.8    39    6.0    45     7.1   949.4    0.00 
  17    0:00   0.00   49.2    37    7.0    44     8.4   949.3    0.00 
  17    0:10   0.00   49.3    34    6.8    49     8.3   949.3    0.00 
  17    0:20   0.00   48.4    36    4.3    58     5.7   949.3    0.00 
  17    0:30   0.00   48.4    36    4.0    52     5.7   949.2    0.00 
  17    0:40   0.00   48.6    34    3.3    34     3.9   949.3    0.00 
  17    0:50   0.00   48.7    34    2.6    40     3.9   949.3    0.00 
  17    1:00   0.00   49.0    32    0.8    40     2.3   949.2    0.00 
  17    1:10   0.00   48.5    34    2.2     8     4.3   949.2    0.00 
  17    1:20   0.00   49.1    33    2.6    16     4.2   949.1    0.00 
  17    1:30   0.00   49.0    33    2.5    11     3.7   949.1    0.00 
  17    1:40   0.00   50.1    31    2.6    28     4.5   949.1    0.00 
  17    1:50   0.00   49.9    31    4.3    11     7.0   949.0    0.00 
  17    2:00   0.00   49.6    29    6.0    14     7.2   949.0    0.00 
  17    2:10   0.00   49.2    28    5.6     8     8.5   948.9    0.00 
  17    2:20   0.00   48.9    29    6.8   357     8.8   948.9    0.00 
  17    2:30   0.00   48.1    30    7.2   338     8.6   948.8    0.00 
  17    2:40   0.00   47.6    31    6.8   350     9.0   948.8    0.00 
  17    2:50   0.00   48.4    29    6.7     6     9.1   948.8    0.00 
  17    3:00   0.00   49.0    28    6.2     9     8.9   948.8    0.00 
  17    3:10   0.00   48.6    29    6.0     7     7.3   948.8    0.00 
  17    3:20   0.00   49.0    27    6.1    13     7.7   948.8    0.00 
  17    3:30   0.00   48.9    28    6.0    24     7.9   948.8    0.00 
  17    3:40   0.00   48.6    28    7.0    14     9.3   948.8    0.00 
  17    3:50   0.00   48.9    27    7.2     9     8.8   948.9    0.00 
  17    4:00   0.00   50.4    25    7.0    20     8.6   949.0    0.00 
  17    4:10   0.00   50.4    25    4.6    31     6.5   949.0    0.00 
  17    4:20   0.00   49.5    26    3.4    50     4.1   949.0    0.00 
  17    4:30   0.00   49.4    26    3.5    34     5.0   949.0    0.00 
  17    4:40   0.00   49.4    26    3.4   351     4.6   949.1    0.00 
  17    4:50   0.00   49.2    26    3.6    12     5.0   949.1    0.00 
  17    5:00   0.00   49.1    26    4.0   358     5.0   949.2    0.00 
  17    5:10   0.00   49.0    27    4.3   353     5.6   949.2    0.00 
  17    5:20   0.00   48.7    27    6.0   358     7.3   949.2    0.00 
  17    5:30   0.00   48.5    28    5.8     6     6.6   949.2    0.00 
  17    5:40   0.00   48.3    28    5.6     1     6.5   949.3    0.00 
  17    5:50   0.00   48.8    27    4.4    12     5.9   949.3    0.00 
  17    6:00   0.00   47.7    29    4.2     2     5.0   949.5    0.00 
  17    6:10   0.00   49.1    27    4.3    26     6.0   949.7    0.00 
  17    6:20   0.00   49.0    27    3.3    28     4.3   949.7    0.00 
  17    6:30   0.00   47.6    30    3.5    71     4.5   949.8    0.00 

Return to Motte Rimrock Reserve graphs page.


Western Regional Climate Center,wrcc@dri.edu